Buoy 53520

sailwx.info

Track history (hours):
 
Tides and Currents Weather Stations Pressure Air Temp Water Temp Dewpoint Dewpoint Depression Visibility Wind Speed Wind Dir Waves Ship Positions

Drifting buoy 53520

Last reported at 2018-Jan-08 19:00 UTC. Time now 2018-Jun-21 00:56 UTC.
Position S 34°46' E 019°52'.
Warning: this ship's position is months out of date.

Barometer 1020.9 mb
Water temperature 17.5 ° C

Date/timePositionNaut miles runAvg speedWind from/ knotsBaromVisibWave heightAir tempDewpointWater temp
2018-Jan-08 19:00S 34°46' E 019°52'0 0.0 1020.9 17.5
2018-Jan-08 18:00S 34°46' E 019°52'1 0.8 1020.5 18.5
2018-Jan-08 17:00S 34°46' E 019°51'1 0.8 1019.6 20.1
2018-Jan-08 16:00S 34°46' E 019°52'1 0.8 1018.9 21.6
2018-Jan-08 15:00S 34°46' E 019°51'0 0.0 1018.7 25.0
2018-Jan-08 14:00S 34°46' E 019°51'0 0.0 1018.4 30.1
2018-Jan-08 13:00S 34°46' E 019°51'1 0.1 1018.0 32.0
2018-Jan-08 07:00S 34°46' E 019°51'0 0.0 1016.0 18.4
2018-Jan-08 05:00S 34°46' E 019°51'0 0.5 1014.5 16.4
2018-Jan-08 04:00S 34°46' E 019°52'0 0.0 1013.7 16.0
2018-Jan-08 03:00S 34°46' E 019°52'0 0.0 1013.1 15.4
2018-Jan-08 02:00S 34°46' E 019°52'0 0.0 1012.4 15.2
2018-Jan-08 01:00S 34°46' E 019°52'0 0.1 1011.8 15.6
2018-Jan-07 21:00S 34°46' E 019°51'0 0.5 1011.3 17.5
2018-Jan-07 20:00S 34°46' E 019°52'1 0.4 1011.0 17.9
2018-Jan-07 18:00S 34°46' E 019°51'0 0.0 1009.4 18.2
2018-Jan-07 17:00S 34°46' E 019°51'1 0.8 1008.9 19.5
2018-Jan-07 16:00S 34°46' E 019°52'1 0.6 1008.4 18.9
2018-Jan-07 15:00S 34°46' E 019°52'1 0.1 1007.6 19.3
2018-Jan-07 09:00S 34°46' E 019°51'1 0.3 1008.4 23.3
2018-Jan-07 07:00S 34°46' E 019°51'1 0.8 1007.6 23.4
2018-Jan-07 06:00S 34°46' E 019°52'0 0.0 1007.8 21.8
2018-Jan-07 05:00S 34°46' E 019°52'0 0.0 1007.4 20.1
2018-Jan-07 04:00S 34°46' E 019°52'0 0.0 1007.1 19.9
2018-Jan-07 03:00S 34°46' E 019°52'0 0.0 1006.9 20.1
2018-Jan-07 02:00S 34°46' E 019°52'0 0.0 1006.9 20.0
2018-Jan-07 01:00S 34°46' E 019°52'0 0.0 1007.1 20.4
2018-Jan-06 21:00S 34°46' E 019°52'0 0.0 1008.8 21.1
2018-Jan-06 20:00S 34°46' E 019°52'1 0.6 1009.0 20.9
2018-Jan-06 19:00S 34°46' E 019°52'0 0.0 1008.8 21.8
2018-Jan-06 17:00S 34°46' E 019°52'0 0.0 1008.4 24.0
2018-Jan-06 16:00S 34°46' E 019°52'1 0.6 1007.9 25.4
2018-Jan-06 15:00S 34°46' E 019°52'0 0.0 1007.6 28.1
2018-Jan-06 13:00S 34°46' E 019°52'0 0.1 1008.9 36.0
2018-Jan-06 08:00S 34°46' E 019°51'0 0.0 1010.5 24.2
2018-Jan-06 07:00S 34°46' E 019°51'0 0.0 1010.5 22.4
2018-Jan-06 06:00S 34°46' E 019°51'0 0.0 1010.6 21.6
2018-Jan-06 05:00S 34°46' E 019°51'0 0.5 1010.6 20.4
2018-Jan-06 04:00S 34°46' E 019°52'0 0.0 1010.7 19.8
2018-Jan-06 03:00S 34°46' E 019°52'0 0.0 1010.7 20.3
2018-Jan-06 01:00S 34°46' E 019°52'0 0.0 1011.0 20.2
2018-Jan-05 22:00S 34°46' E 019°52'0 0.0 1013.2 21.2
2018-Jan-05 20:00S 34°46' E 019°52'0 0.2 1013.8 20.9
2018-Jan-05 18:00S 34°46' E 019°51'1 0.8 1013.2 23.0
2018-Jan-05 17:00S 34°46' E 019°52'0 0.0 1012.9 24.2
2018-Jan-05 16:00S 34°46' E 019°52'1 0.6 1012.5 25.3
2018-Jan-05 15:00S 34°46' E 019°52'0 0.0 1012.6 28.7
2018-Jan-05 14:00S 34°46' E 019°52'1 0.1 1012.9 33.7
2018-Jan-05 08:00S 34°46' E 019°51'0 0.0 1015.0 26.0
2018-Jan-05 07:00S 34°46' E 019°51'0 0.0 1015.0 23.7
2018-Jan-05 06:00S 34°46' E 019°51'0 0.5 1014.8 22.0
2018-Jan-05 05:00S 34°46' E 019°52'1 0.6 1014.4 20.2
2018-Jan-05 04:00S 34°46' E 019°52'0 0.0 1014.0 18.6
2018-Jan-05 03:00S 34°46' E 019°52'0 0.0 1013.8 19.5
2018-Jan-05 02:00S 34°46' E 019°52'0 0.0 1014.3 19.4
2018-Jan-05 01:00S 34°46' E 019°52'0 0.2 1014.0 18.7
2018-Jan-04 23:00S 34°46' E 019°51'0 0.1 1015.1 20.5
2018-Jan-04 19:00S 34°46' E 019°52'0 0.0 1014.7 21.1
2018-Jan-04 18:00S 34°46' E 019°52'1 0.8 1014.2 22.3
2018-Jan-04 17:00S 34°46' E 019°51'1 0.4 1013.5 23.5
2018-Jan-04 15:00S 34°46' E 019°50'0 0.0 1012.4 29.0
2018-Jan-04 14:00S 34°46' E 019°50'1 0.2 1012.2 31.6
2018-Jan-04 07:00S 34°46' E 019°52'1 0.8 1012.6 28.3
2018-Jan-04 06:00S 34°46' E 019°51'0 0.5 1012.5 21.9
2018-Jan-04 05:00S 34°46' E 019°52'0 0.0 1013.2 19.0
2018-Jan-04 04:00S 34°46' E 019°52'0 0.0 1013.5 18.5
2018-Jan-04 03:00S 34°46' E 019°52'0 0.0 1013.8 18.7
2018-Jan-04 02:00S 34°46' E 019°52'0 0.2 1014.2 18.9
2018-Jan-04 00:00S 34°46' E 019°51'0 0.0 1015.7 18.6
2018-Jan-03 21:00S 34°46' E 019°51'0 0.5 1017.2 18.9
2018-Jan-03 20:00S 34°46' E 019°52'0 0.0 1017.5 19.0
2018-Jan-03 19:00S 34°46' E 019°52'0 0.0 1017.1 19.3
2018-Jan-03 18:00S 34°46' E 019°52'0 0.0 1016.9 20.4
2018-Jan-03 16:00S 34°46' E 019°52'0 0.0 1016.8 21.4
2018-Jan-03 15:00S 34°46' E 019°52'0 0.5 1016.8 21.6
2018-Jan-03 14:00S 34°46' E 019°52'1 1.0 1017.3 22.1
2018-Jan-03 13:00S 34°46' E 019°51'0 0.0 1017.9 23.4
2018-Jan-03 12:00S 34°46' E 019°51'0 0.1 1018.4 29.7
2018-Jan-03 07:00S 34°46' E 019°52'0 0.0 1020.3 19.3
2018-Jan-03 05:00S 34°46' E 019°52'0 0.0 1020.3 15.8
2018-Jan-03 04:00S 34°46' E 019°52'0 0.0 1020.3 14.9
2018-Jan-03 02:00S 34°46' E 019°52'0 0.0 1020.0 13.3
2018-Jan-03 01:00S 34°46' E 019°52'0 0.0 1020.3 14.6
2018-Jan-03 00:00S 34°46' E 019°52'0 0.2 1021.2 16.0
2018-Jan-02 21:00S 34°46' E 019°51'0 0.5 1022.1 16.2
2018-Jan-02 20:00S 34°46' E 019°52'0 0.0 1021.8 17.1
2018-Jan-02 19:00S 34°46' E 019°52'0 0.0 1020.9 17.6
2018-Jan-02 18:00S 34°46' E 019°52'0 0.5 1020.0 18.0
2018-Jan-02 17:00S 34°46' E 019°51'0 0.5 1019.4 18.8
2018-Jan-02 16:00S 34°46' E 019°52'0 0.0 1018.7 22.5
2018-Jan-02 15:00S 34°46' E 019°52'0 0.0 1018.4 19.6
2018-Jan-02 14:00S 34°46' E 019°52'0 0.0 1019.1 17.9
2018-Jan-02 13:00S 34°46' E 019°52'0 0.0 1019.2 22.1
2018-Jan-02 08:00S 34°46' E 019°52'0 0.0 1019.0 17.8
2018-Jan-02 07:00S 34°46' E 019°52'0 0.0 1019.0 16.8
2018-Jan-02 05:00S 34°46' E 019°52'0 0.0 1018.0 14.1
2018-Jan-02 04:00S 34°46' E 019°52'0 0.0 1017.4 14.0
2018-Jan-02 02:00S 34°46' E 019°52'0 0.5 1017.1 14.5
2018-Jan-02 01:00S 34°46' E 019°51'0 0.0 1017.4 15.8
2018-Jan-02 00:00S 34°46' E 019°51'0 0.2 1018.2 15.4
2018-Jan-01 21:00S 34°46' E 019°52'0 0.0 1019.0 14.0
2018-Jan-01 20:00S 34°46' E 019°52'0 0.0 1018.7 14.8
2018-Jan-01 18:00S 34°46' E 019°52'0 0.5 1017.5 15.1
2018-Jan-01 17:00S 34°46' E 019°51'0 0.2 1017.0 15.2
2018-Jan-01 15:00S 34°46' E 019°50'2 0.8 1016.4 16.0
2018-Jan-01 13:00S 34°47' E 019°49'5 1.1 1016.3 17.4
2018-Jan-01 08:00S 34°50' E 019°43'2 1.9 1013.7 16.9
2018-Jan-01 07:00S 34°51' E 019°41'1 0.8 1013.3 17.0
2018-Jan-01 06:00S 34°52' E 019°41'2 1.9 1012.4 17.2
2018-Jan-01 05:00S 34°53' E 019°39'1 0.6 1011.7 17.6
2018-Jan-01 04:00S 34°52' E 019°39'1 1.3 1010.8 17.9
2018-Jan-01 03:00S 34°53' E 019°38'1 1.3 1010.0 18.3
2018-Jan-01 02:00S 34°55' E 019°38'0 0.0 1009.3 18.7
2018-Jan-01 01:00S 34°55' E 019°38'3 0.9 1008.7 19.0
2017-Dec-31 22:00S 34°57' E 019°37'1 0.6 1008.6 19.6
2017-Dec-31 21:00S 34°56' E 019°37'1 0.6 1008.7 19.6
2017-Dec-31 20:00S 34°57' E 019°37'2 1.6
2017-Dec-31 19:00S 34°58' E 019°35'1 1.2 1008.3 19.2
2017-Dec-31 18:00S 34°57' E 019°36'0 0.5 1007.4 18.8
2017-Dec-31 17:00S 34°57' E 019°35'0 0.5 1007.0 18.0
2017-Dec-31 16:00S 34°57' E 019°35'1 1.0 1006.7 17.6
2017-Dec-31 15:00S 34°57' E 019°34'1 0.6 1006.6 17.7
2017-Dec-31 14:00S 34°56' E 019°34'0 0.0 1007.3 17.4
2017-Dec-31 13:00S 34°56' E 019°34'3 0.7 1007.4 17.2
2017-Dec-31 09:00S 34°55' E 019°31'1 1.2 1007.9 18.2
2017-Dec-31 08:00S 34°56' E 019°31'0 0.0 1008.4 17.9
2017-Dec-31 07:00S 34°56' E 019°31'1 0.8 1008.5 17.9
2017-Dec-31 06:00S 34°57' E 019°31'1 0.6 1008.3 17.8
2017-Dec-31 05:00S 34°58' E 019°31'1 1.0 1008.1 17.8
2017-Dec-31 04:00S 34°58' E 019°32'0 0.0 1008.1 17.7
2017-Dec-31 03:00S 34°58' E 019°32'2 2.0 1007.8 17.6
2017-Dec-31 02:00S 34°58' E 019°35'0 0.0 1008.3 17.1
2017-Dec-31 01:00S 34°58' E 019°35'0 0.0 1008.9 16.9
2017-Dec-31 00:00S 34°58' E 019°35'3 1.2 1009.8 17.0
2017-Dec-30 21:00S 34°57' E 019°39'1 0.8 1012.8 17.1
2017-Dec-30 20:00S 34°56' E 019°40'1 1.2 1013.1 17.4
2017-Dec-30 19:00S 34°56' E 019°41'0 0.0 1013.0 17.8
2017-Dec-30 18:00S 34°56' E 019°41'2 1.6 1013.0 18.0
2017-Dec-30 17:00S 34°55' E 019°43'1 1.0 1012.6 17.9
2017-Dec-30 16:00S 34°55' E 019°44'1 1.5 1012.9 16.3
2017-Dec-30 15:00S 34°55' E 019°46'1 1.0 1013.2 16.4
2017-Dec-30 14:00S 34°55' E 019°47'0 0.0 1013.5 16.6
2017-Dec-30 13:00S 34°55' E 019°47'8 1.3 1013.7 17.0
2017-Dec-30 07:00S 34°54' E 019°56'2 2.1 1014.6 18.8
2017-Dec-30 06:00S 34°53' E 019°59'0 0.5 1014.4 18.9
2017-Dec-30 05:00S 34°53' E 019°59'2 2.5 1014.1 19.1
2017-Dec-30 04:00S 34°53' E 020°02'1 0.8 1013.6 19.2
2017-Dec-30 03:00S 34°53' E 020°03'2 2.1 1013.1 19.3
2017-Dec-30 02:00S 34°52' E 020°05'0 0.0 1013.0 19.6
2017-Dec-30 01:00S 34°52' E 020°05'2 1.0 1012.9 19.8
2017-Dec-29 23:00S 34°52' E 020°08'4 2.2 1013.9 20.0
2017-Dec-29 21:00S 34°50' E 020°13'1 1.0 1014.5 20.0
2017-Dec-29 20:00S 34°50' E 020°14'3 2.7 1014.3 20.1
2017-Dec-29 19:00S 34°49' E 020°17'   1013.9 20.1
Track history (hours):
 
Tides and Currents Weather Stations Pressure Air Temp Water Temp Dewpoint Dewpoint Depression Visibility Wind Speed Wind Dir Waves Ship Positions

Drifting buoy 53520

Last reported at 2018-Jan-08 19:00 UTC. Time now 2018-Jun-21 00:56 UTC.
Position S 34°46' E 019°52'.
Warning: this ship's position is months out of date.

Barometer 1020.9 mb
Water temperature 17.5 ° C

Date/timePositionNaut miles runAvg speedWind from/ knotsBaromVisibWave heightAir tempDewpointWater temp
2018-Jan-08 19:00S 34°46' E 019°52'0 0.0 1020.9 17.5
2018-Jan-08 18:00S 34°46' E 019°52'1 0.8 1020.5 18.5
2018-Jan-08 17:00S 34°46' E 019°51'1 0.8 1019.6 20.1
2018-Jan-08 16:00S 34°46' E 019°52'1 0.8 1018.9 21.6
2018-Jan-08 15:00S 34°46' E 019°51'0 0.0 1018.7 25.0
2018-Jan-08 14:00S 34°46' E 019°51'0 0.0 1018.4 30.1
2018-Jan-08 13:00S 34°46' E 019°51'1 0.1 1018.0 32.0
2018-Jan-08 07:00S 34°46' E 019°51'0 0.0 1016.0 18.4
2018-Jan-08 05:00S 34°46' E 019°51'0 0.5 1014.5 16.4
2018-Jan-08 04:00S 34°46' E 019°52'0 0.0 1013.7 16.0
2018-Jan-08 03:00S 34°46' E 019°52'0 0.0 1013.1 15.4
2018-Jan-08 02:00S 34°46' E 019°52'0 0.0 1012.4 15.2
2018-Jan-08 01:00S 34°46' E 019°52'0 0.1 1011.8 15.6
2018-Jan-07 21:00S 34°46' E 019°51'0 0.5 1011.3 17.5
2018-Jan-07 20:00S 34°46' E 019°52'1 0.4 1011.0 17.9
2018-Jan-07 18:00S 34°46' E 019°51'0 0.0 1009.4 18.2
2018-Jan-07 17:00S 34°46' E 019°51'1 0.8 1008.9 19.5
2018-Jan-07 16:00S 34°46' E 019°52'1 0.6 1008.4 18.9
2018-Jan-07 15:00S 34°46' E 019°52'1 0.1 1007.6 19.3
2018-Jan-07 09:00S 34°46' E 019°51'1 0.3 1008.4 23.3
2018-Jan-07 07:00S 34°46' E 019°51'1 0.8 1007.6 23.4
2018-Jan-07 06:00S 34°46' E 019°52'0 0.0 1007.8 21.8
2018-Jan-07 05:00S 34°46' E 019°52'0 0.0 1007.4 20.1
2018-Jan-07 04:00S 34°46' E 019°52'0 0.0 1007.1 19.9
2018-Jan-07 03:00S 34°46' E 019°52'0 0.0 1006.9 20.1
2018-Jan-07 02:00S 34°46' E 019°52'0 0.0 1006.9 20.0
2018-Jan-07 01:00S 34°46' E 019°52'0 0.0 1007.1 20.4
2018-Jan-06 21:00S 34°46' E 019°52'0 0.0 1008.8 21.1
2018-Jan-06 20:00S 34°46' E 019°52'1 0.6 1009.0 20.9
2018-Jan-06 19:00S 34°46' E 019°52'0 0.0 1008.8 21.8
2018-Jan-06 17:00S 34°46' E 019°52'0 0.0 1008.4 24.0
2018-Jan-06 16:00S 34°46' E 019°52'1 0.6 1007.9 25.4
2018-Jan-06 15:00S 34°46' E 019°52'0 0.0 1007.6 28.1
2018-Jan-06 13:00S 34°46' E 019°52'0 0.1 1008.9 36.0
2018-Jan-06 08:00S 34°46' E 019°51'0 0.0 1010.5 24.2
2018-Jan-06 07:00S 34°46' E 019°51'0 0.0 1010.5 22.4
2018-Jan-06 06:00S 34°46' E 019°51'0 0.0 1010.6 21.6
2018-Jan-06 05:00S 34°46' E 019°51'0 0.5 1010.6 20.4
2018-Jan-06 04:00S 34°46' E 019°52'0 0.0 1010.7 19.8
2018-Jan-06 03:00S 34°46' E 019°52'0 0.0 1010.7 20.3
2018-Jan-06 01:00S 34°46' E 019°52'0 0.0 1011.0 20.2
2018-Jan-05 22:00S 34°46' E 019°52'0 0.0 1013.2 21.2
2018-Jan-05 20:00S 34°46' E 019°52'0 0.2 1013.8 20.9
2018-Jan-05 18:00S 34°46' E 019°51'1 0.8 1013.2 23.0
2018-Jan-05 17:00S 34°46' E 019°52'0 0.0 1012.9 24.2
2018-Jan-05 16:00S 34°46' E 019°52'1 0.6 1012.5 25.3
2018-Jan-05 15:00S 34°46' E 019°52'0 0.0 1012.6 28.7
2018-Jan-05 14:00S 34°46' E 019°52'1 0.1 1012.9 33.7
2018-Jan-05 08:00S 34°46' E 019°51'0 0.0 1015.0 26.0
2018-Jan-05 07:00S 34°46' E 019°51'0 0.0 1015.0 23.7
2018-Jan-05 06:00S 34°46' E 019°51'0 0.5 1014.8 22.0
2018-Jan-05 05:00S 34°46' E 019°52'1 0.6 1014.4 20.2
2018-Jan-05 04:00S 34°46' E 019°52'0 0.0 1014.0 18.6
2018-Jan-05 03:00S 34°46' E 019°52'0 0.0 1013.8 19.5
2018-Jan-05 02:00S 34°46' E 019°52'0 0.0 1014.3 19.4
2018-Jan-05 01:00S 34°46' E 019°52'0 0.2 1014.0 18.7
2018-Jan-04 23:00S 34°46' E 019°51'0 0.1 1015.1 20.5
2018-Jan-04 19:00S 34°46' E 019°52'0 0.0 1014.7 21.1
2018-Jan-04 18:00S 34°46' E 019°52'1 0.8 1014.2 22.3
2018-Jan-04 17:00S 34°46' E 019°51'1 0.4 1013.5 23.5
2018-Jan-04 15:00S 34°46' E 019°50'0 0.0 1012.4 29.0
2018-Jan-04 14:00S 34°46' E 019°50'1 0.2 1012.2 31.6
2018-Jan-04 07:00S 34°46' E 019°52'1 0.8 1012.6 28.3
2018-Jan-04 06:00S 34°46' E 019°51'0 0.5 1012.5 21.9
2018-Jan-04 05:00S 34°46' E 019°52'0 0.0 1013.2 19.0
2018-Jan-04 04:00S 34°46' E 019°52'0 0.0 1013.5 18.5
2018-Jan-04 03:00S 34°46' E 019°52'0 0.0 1013.8 18.7
2018-Jan-04 02:00S 34°46' E 019°52'0 0.2 1014.2 18.9
2018-Jan-04 00:00S 34°46' E 019°51'0 0.0 1015.7 18.6
2018-Jan-03 21:00S 34°46' E 019°51'0 0.5 1017.2 18.9
2018-Jan-03 20:00S 34°46' E 019°52'0 0.0 1017.5 19.0
2018-Jan-03 19:00S 34°46' E 019°52'0 0.0 1017.1 19.3
2018-Jan-03 18:00S 34°46' E 019°52'0 0.0 1016.9 20.4
2018-Jan-03 16:00S 34°46' E 019°52'0 0.0 1016.8 21.4
2018-Jan-03 15:00S 34°46' E 019°52'0 0.5 1016.8 21.6
2018-Jan-03 14:00S 34°46' E 019°52'1 1.0 1017.3 22.1
2018-Jan-03 13:00S 34°46' E 019°51'0 0.0 1017.9 23.4
2018-Jan-03 12:00S 34°46' E 019°51'0 0.1 1018.4 29.7
2018-Jan-03 07:00S 34°46' E 019°52'0 0.0 1020.3 19.3
2018-Jan-03 05:00S 34°46' E 019°52'0 0.0 1020.3 15.8
2018-Jan-03 04:00S 34°46' E 019°52'0 0.0 1020.3 14.9
2018-Jan-03 02:00S 34°46' E 019°52'0 0.0 1020.0 13.3
2018-Jan-03 01:00S 34°46' E 019°52'0 0.0 1020.3 14.6
2018-Jan-03 00:00S 34°46' E 019°52'0 0.2 1021.2 16.0
2018-Jan-02 21:00S 34°46' E 019°51'0 0.5 1022.1 16.2
2018-Jan-02 20:00S 34°46' E 019°52'0 0.0 1021.8 17.1
2018-Jan-02 19:00S 34°46' E 019°52'0 0.0 1020.9 17.6
2018-Jan-02 18:00S 34°46' E 019°52'0 0.5 1020.0 18.0
2018-Jan-02 17:00S 34°46' E 019°51'0 0.5 1019.4 18.8
2018-Jan-02 16:00S 34°46' E 019°52'0 0.0 1018.7 22.5
2018-Jan-02 15:00S 34°46' E 019°52'0 0.0 1018.4 19.6
2018-Jan-02 14:00S 34°46' E 019°52'0 0.0 1019.1 17.9
2018-Jan-02 13:00S 34°46' E 019°52'0 0.0 1019.2 22.1
2018-Jan-02 08:00S 34°46' E 019°52'0 0.0 1019.0 17.8
2018-Jan-02 07:00S 34°46' E 019°52'0 0.0 1019.0 16.8
2018-Jan-02 05:00S 34°46' E 019°52'0 0.0 1018.0 14.1
2018-Jan-02 04:00S 34°46' E 019°52'0 0.0 1017.4 14.0
2018-Jan-02 02:00S 34°46' E 019°52'0 0.5 1017.1 14.5
2018-Jan-02 01:00S 34°46' E 019°51'0 0.0 1017.4 15.8
2018-Jan-02 00:00S 34°46' E 019°51'0 0.2 1018.2 15.4
2018-Jan-01 21:00S 34°46' E 019°52'0 0.0 1019.0 14.0
2018-Jan-01 20:00S 34°46' E 019°52'0 0.0 1018.7 14.8
2018-Jan-01 18:00S 34°46' E 019°52'0 0.5 1017.5 15.1
2018-Jan-01 17:00S 34°46' E 019°51'0 0.2 1017.0 15.2
2018-Jan-01 15:00S 34°46' E 019°50'2 0.8 1016.4 16.0
2018-Jan-01 13:00S 34°47' E 019°49'5 1.1 1016.3 17.4
2018-Jan-01 08:00S 34°50' E 019°43'2 1.9 1013.7 16.9
2018-Jan-01 07:00S 34°51' E 019°41'1 0.8 1013.3 17.0
2018-Jan-01 06:00S 34°52' E 019°41'2 1.9 1012.4 17.2
2018-Jan-01 05:00S 34°53' E 019°39'1 0.6 1011.7 17.6
2018-Jan-01 04:00S 34°52' E 019°39'1 1.3 1010.8 17.9
2018-Jan-01 03:00S 34°53' E 019°38'1 1.3 1010.0 18.3
2018-Jan-01 02:00S 34°55' E 019°38'0 0.0 1009.3 18.7
2018-Jan-01 01:00S 34°55' E 019°38'3 0.9 1008.7 19.0
2017-Dec-31 22:00S 34°57' E 019°37'1 0.6 1008.6 19.6
2017-Dec-31 21:00S 34°56' E 019°37'1 0.6 1008.7 19.6
2017-Dec-31 20:00S 34°57' E 019°37'2 1.6
2017-Dec-31 19:00S 34°58' E 019°35'1 1.2 1008.3 19.2
2017-Dec-31 18:00S 34°57' E 019°36'0 0.5 1007.4 18.8
2017-Dec-31 17:00S 34°57' E 019°35'0 0.5 1007.0 18.0
2017-Dec-31 16:00S 34°57' E 019°35'1 1.0 1006.7 17.6
2017-Dec-31 15:00S 34°57' E 019°34'1 0.6 1006.6 17.7
2017-Dec-31 14:00S 34°56' E 019°34'0 0.0 1007.3 17.4
2017-Dec-31 13:00S 34°56' E 019°34'3 0.7 1007.4 17.2
2017-Dec-31 09:00S 34°55' E 019°31'1 1.2 1007.9 18.2
2017-Dec-31 08:00S 34°56' E 019°31'0 0.0 1008.4 17.9
2017-Dec-31 07:00S 34°56' E 019°31'1 0.8 1008.5 17.9
2017-Dec-31 06:00S 34°57' E 019°31'1 0.6 1008.3 17.8
2017-Dec-31 05:00S 34°58' E 019°31'1 1.0 1008.1 17.8
2017-Dec-31 04:00S 34°58' E 019°32'0 0.0 1008.1 17.7
2017-Dec-31 03:00S 34°58' E 019°32'2 2.0 1007.8 17.6
2017-Dec-31 02:00S 34°58' E 019°35'0 0.0 1008.3 17.1
2017-Dec-31 01:00S 34°58' E 019°35'0 0.0 1008.9 16.9
2017-Dec-31 00:00S 34°58' E 019°35'3 1.2 1009.8 17.0
2017-Dec-30 21:00S 34°57' E 019°39'1 0.8 1012.8 17.1
2017-Dec-30 20:00S 34°56' E 019°40'1 1.2 1013.1 17.4
2017-Dec-30 19:00S 34°56' E 019°41'0 0.0 1013.0 17.8
2017-Dec-30 18:00S 34°56' E 019°41'2 1.6 1013.0 18.0
2017-Dec-30 17:00S 34°55' E 019°43'1 1.0 1012.6 17.9
2017-Dec-30 16:00S 34°55' E 019°44'1 1.5 1012.9 16.3
2017-Dec-30 15:00S 34°55' E 019°46'1 1.0 1013.2 16.4
2017-Dec-30 14:00S 34°55' E 019°47'0 0.0 1013.5 16.6
2017-Dec-30 13:00S 34°55' E 019°47'8 1.3 1013.7 17.0
2017-Dec-30 07:00S 34°54' E 019°56'2 2.1 1014.6 18.8
2017-Dec-30 06:00S 34°53' E 019°59'0 0.5 1014.4 18.9
2017-Dec-30 05:00S 34°53' E 019°59'2 2.5 1014.1 19.1
2017-Dec-30 04:00S 34°53' E 020°02'1 0.8 1013.6 19.2
2017-Dec-30 03:00S 34°53' E 020°03'2 2.1 1013.1 19.3
2017-Dec-30 02:00S 34°52' E 020°05'0 0.0 1013.0 19.6
2017-Dec-30 01:00S 34°52' E 020°05'2 1.0 1012.9 19.8
2017-Dec-29 23:00S 34°52' E 020°08'4 2.2 1013.9 20.0
2017-Dec-29 21:00S 34°50' E 020°13'1 1.0 1014.5 20.0
2017-Dec-29 20:00S 34°50' E 020°14'3 2.7 1014.3 20.1
2017-Dec-29 19:00S 34°49' E 020°17'   1013.9 20.1

Dump ship's entire track history